Freeland, Maryland
Current Conditions -  °F | °C
As of 4:20 AM on Monday 24 Nov 2014 (Local Time) from KDMW Reporting Station
Moderate Rain Moderate Rain  
Wind Chill: 61°   Ceiling: 1100
Heat Index: 61°   Visibility: 10mi
Dew Point: 59°   Wind: 14mph
Humidity: 94%   Direction: 190°S
Pressure: 29.63"   Gusts: 22mph
Location:  39.7°N, 76.68°W
Report Text: KDMW 240920Z AUTO 19012G19KT 10SM RA BKN011 OVC014 16/15 A2963 RMK AO2
Loading
Personal Weather Stations






























Interactive Weather Map New forecast layout! Learn more

10-Day Weather Forecast

Advertisements
Track Severe Weather on mobile